Time;durP1;ratioP1;P1;durP2;ratioP2;P2;SDS_P1;SDS_P2;PMS_P1;PMS_P2;Temp;Humidity;BMP_temperature;BMP_pressure;BME280_temperature;BME280_humidity;BME280_pressure;Samples;Min_cycle;Max_cycle;Signal;HPM_P1;HPM_P2
2022/05/15 00:02:21;;;;;;;10.30;6.50;;;11.20;99.90;;;10.88;70.62;101584.81;4975589;28;20471;-68
2022/05/15 00:04:50;;;;;;;9.17;6.13;;;11.10;99.90;;;10.77;71.01;101585.28;5000538;28;20540;-67
2022/05/15 00:07:18;;;;;;;11.63;6.30;;;11.00;99.90;;;10.72;71.21;101580.44;5007228;28;20536;-68
2022/05/15 00:09:47;;;;;;;8.77;6.40;;;11.00;99.90;;;10.68;71.44;101579.13;4993635;28;20444;-66
2022/05/15 00:12:17;;;;;;;6.00;5.40;;;11.00;99.90;;;10.65;71.81;101581.38;5007834;28;20839;-67
2022/05/15 00:14:47;;;;;;;12.20;5.90;;;10.90;99.90;;;10.65;71.92;101584.91;4994550;28;20850;-66
2022/05/15 00:17:17;;;;;;;8.13;6.10;;;10.80;99.90;;;10.84;71.16;101581.63;4994951;28;20983;-67
2022/05/15 00:19:46;;;;;;;9.20;6.43;;;10.90;99.90;;;10.80;71.22;101582.19;5004514;28;20802;-66
2022/05/15 00:22:14;;;;;;;8.77;6.00;;;11.00;99.90;;;10.65;71.69;101592.19;5006558;28;20977;-68
2022/05/15 00:24:43;;;;;;;7.57;5.50;;;10.90;99.90;;;10.45;71.98;101587.34;5003325;28;20529;-66
2022/05/15 00:27:12;;;;;;;9.80;5.40;;;10.70;99.90;;;10.41;72.73;101590.56;5003285;28;20445;-68
2022/05/15 00:29:41;;;;;;;10.95;5.55;;;10.70;99.90;;;10.28;72.85;101584.94;4995561;28;20438;-67
2022/05/15 00:32:11;;;;;;;5.15;4.65;;;10.50;99.90;;;10.24;73.36;101583.63;5002453;28;20226;-68
2022/05/15 00:34:39;;;;;;;9.10;5.20;;;10.50;99.90;;;10.22;73.29;101581.09;5008197;28;20189;-68
2022/05/15 00:37:08;;;;;;;9.35;6.03;;;10.50;99.90;;;10.19;73.79;101584.19;4999009;28;20183;-68
2022/05/15 00:39:37;;;;;;;13.43;5.60;;;10.40;99.90;;;10.16;73.80;101584.56;5001023;28;20227;-66
2022/05/15 00:42:10;;;;;;;9.75;5.50;;;10.40;99.90;;;10.29;73.78;101586.63;5008095;28;20436;-67
2022/05/15 00:44:39;;;;;;;10.27;5.87;;;10.40;99.90;;;10.23;73.74;101587.38;5008652;28;20194;-67
2022/05/15 00:47:08;;;;;;;9.65;5.90;;;10.40;99.90;;;10.17;73.92;101585.38;5007008;28;20438;-68
2022/05/15 00:49:38;;;;;;;9.50;5.77;;;10.40;99.90;;;10.12;73.80;101579.69;5004051;28;20197;-67
2022/05/15 00:52:13;;;;;;;6.88;5.07;;;10.40;99.90;;;10.00;74.08;101582.81;5007022;28;20577;-67
2022/05/15 00:54:48;;;;;;;5.22;4.10;;;10.30;99.90;;;10.13;74.21;101582.19;5013095;28;20225;-67
2022/05/15 00:57:22;;;;;;;8.18;5.07;;;10.30;99.90;;;10.42;72.91;101581.44;5016220;28;20191;-66
2022/05/15 01:00:03;;;;;;;5.80;4.33;;;10.40;99.90;;;10.22;72.86;101582.97;5014389;28;20233;-67
2022/05/15 01:02:39;;;;;;;5.00;3.47;;;10.40;99.90;;;10.11;73.28;101594.22;5024370;28;20472;-66
2022/05/15 01:05:12;;;;;;;8.85;4.68;;;10.30;99.90;;;10.02;73.56;101591.56;5008737;28;20254;-67
2022/05/15 01:07:41;;;;;;;7.45;4.07;;;10.30;99.90;;;10.09;73.74;101590.84;5003659;28;20253;-66
2022/05/15 01:10:13;;;;;;;6.70;5.10;;;10.30;99.90;;;10.03;73.65;101595.94;5019739;28;20259;-67
2022/05/15 01:12:44;;;;;;;7.57;4.37;;;10.20;99.90;;;10.06;73.62;101591.22;4991923;28;20857;-67
2022/05/15 01:15:25;;;;;;;8.25;3.63;;;10.30;99.90;;;10.14;73.36;101588.44;4980417;28;20433;-68
2022/05/15 01:20:36;;;;;;;3.70;3.22;;;10.20;1.00;;;10.08;73.07;101594.56;4978564;28;20615;-67
2022/05/15 01:23:07;;;;;;;7.53;3.80;;;10.20;6.80;;;10.04;73.10;101597.63;4978724;28;20254;-68
2022/05/15 01:25:38;;;;;;;6.10;3.35;;;10.20;99.90;;;10.03;73.55;101587.00;5011752;28;20198;-67
2022/05/15 01:28:12;;;;;;;5.32;3.53;;;10.20;99.90;;;9.98;73.31;101584.00;5002710;28;20203;-68
2022/05/15 01:30:47;;;;;;;11.00;3.23;;;10.20;99.90;;;9.96;73.30;101588.75;5004284;28;20245;-66
2022/05/15 01:33:18;;;;;;;6.15;3.03;;;10.10;99.90;;;9.91;73.47;101591.16;5001090;28;20462;-69
2022/05/15 01:35:48;;;;;;;6.67;3.27;;;10.10;99.90;;;10.05;73.25;101595.78;4996474;28;20191;-68
2022/05/15 01:38:19;;;;;;;3.20;2.90;;;10.20;1.00;;;9.98;73.30;101595.66;5014568;28;20456;-67
2022/05/15 01:40:50;;;;;;;9.27;4.20;;;10.20;1.00;;;9.90;73.64;101593.03;4991480;28;20877;-67
2022/05/15 01:43:20;;;;;;;7.20;3.88;;;10.10;1.00;;;9.74;74.14;101595.84;4997872;28;20218;-67
2022/05/15 01:45:49;;;;;;;10.05;3.90;;;10.00;99.90;;;9.73;74.48;101590.63;4995861;28;20203;-67
2022/05/15 01:48:18;;;;;;;9.40;3.78;;;10.00;1.00;;;9.69;74.71;101598.22;4989225;28;20187;-68
2022/05/15 01:50:47;;;;;;;5.65;4.10;;;9.90;99.90;;;9.62;74.89;101591.88;5004699;28;20221;-67
2022/05/15 01:53:23;;;;;;;12.48;4.00;;;9.90;33.70;;;9.46;75.21;101597.38;5016286;28;20243;-67
2022/05/15 01:55:52;;;;;;;6.90;3.20;;;9.70;58.30;;;9.35;75.49;101593.22;5001885;28;20221;-67
2022/05/15 01:58:22;;;;;;;7.03;3.22;;;9.60;99.90;;;9.37;75.80;101595.75;5003779;28;20205;-68
2022/05/15 02:00:51;;;;;;;3.63;3.05;;;9.60;99.90;;;9.38;75.73;101587.47;4993568;28;20763;-66
2022/05/15 02:03:20;;;;;;;6.05;3.30;;;9.60;99.90;;;9.45;75.54;101587.59;4989057;28;20234;-68
2022/05/15 02:05:49;;;;;;;4.45;2.60;;;9.60;99.90;;;9.71;74.64;101593.50;4998786;28;20195;-67
2022/05/15 02:08:19;;;;;;;5.13;4.05;;;9.80;99.90;;;9.69;74.58;101592.81;4989324;28;20195;-67
2022/05/15 02:10:50;;;;;;;5.25;3.20;;;9.80;99.90;;;9.55;74.80;101604.41;5001359;28;20206;-67
2022/05/15 02:13:19;;;;;;;5.45;3.38;;;9.80;99.90;;;9.49;75.46;101600.56;4995738;28;20222;-67
2022/05/15 02:15:50;;;;;;;6.03;3.63;;;9.70;99.90;;;9.61;75.16;101601.00;4979022;28;20293;-68
2022/05/15 02:18:18;;;;;;;7.70;4.20;;;9.70;99.90;;;9.62;75.02;101594.59;4983526;28;20310;-67
2022/05/15 02:20:47;;;;;;;7.40;4.00;;;9.80;99.90;;;9.57;75.38;101605.09;5015925;28;20202;-67
2022/05/15 02:23:16;;;;;;;6.63;4.10;;;9.80;99.90;;;9.61;74.86;101603.69;5000979;28;20729;-67
2022/05/15 02:25:45;;;;;;;5.43;3.72;;;9.80;99.90;;;9.59;74.91;101594.91;4997744;28;20604;-67
2022/05/15 02:28:15;;;;;;;4.20;3.70;;;9.80;99.90;;;9.37;75.66;101601.16;4992697;28;20459;-68
2022/05/15 02:30:44;;;;;;;6.78;4.18;;;9.60;99.90;;;9.45;75.73;101603.78;4985141;28;20202;-68
2022/05/15 02:33:13;;;;;;;10.45;4.97;;;9.60;99.90;;;9.30;75.90;101600.16;5013696;28;20218;-67
2022/05/15 02:35:42;;;;;;;5.85;4.45;;;9.50;99.90;;;9.14;76.56;101593.84;4994472;28;20631;-67
2022/05/15 02:38:11;;;;;;;6.57;3.53;;;9.40;99.90;;;9.25;76.65;101602.53;5010212;28;20290;-67
2022/05/15 02:40:41;;;;;;;11.40;6.60;;;9.40;99.90;;;9.14;76.77;101601.94;4987277;28;20735;-67
2022/05/15 02:43:09;;;;;;;5.38;4.22;;;9.40;99.90;;;9.03;77.57;101602.31;4997689;28;20627;-65
2022/05/15 02:45:39;;;;;;;8.05;3.90;;;9.30;99.90;;;8.95;78.44;101610.47;4989832;28;20732;-67
2022/05/15 02:51:03;;;;;;;6.07;4.03;;;9.20;99.90;;;9.05;78.48;101605.66;4997112;28;20202;-68
2022/05/15 02:51:04;;;;;;;6.40;4.82;;;9.20;99.90;;;9.15;78.49;101603.59;5020235;28;20696;-68
2022/05/15 02:53:38;;;;;;;7.40;4.25;;;9.30;99.90;;;9.19;78.74;101603.28;4994711;28;20221;-68
2022/05/15 02:56:12;;;;;;;5.32;3.58;;;9.30;99.90;;;9.16;78.96;101605.28;5006772;28;20210;-67
2022/05/15 02:58:43;;;;;;;8.98;3.25;;;9.30;99.90;;;9.05;79.24;101610.25;4991262;28;20199;-67
2022/05/15 03:01:13;;;;;;;5.32;3.97;;;9.30;99.90;;;9.05;79.60;101608.38;5006149;28;20277;-68
2022/05/15 03:03:44;;;;;;;11.98;5.18;;;9.30;99.90;;;9.10;79.44;101605.97;5015893;28;20737;-66
2022/05/15 03:06:13;;;;;;;9.68;4.95;;;9.30;99.90;;;9.02;79.80;101611.44;4984579;28;20586;-67
2022/05/15 03:08:46;;;;;;;6.68;3.92;;;9.30;99.90;;;8.91;79.98;101617.19;4991671;28;20199;-67
2022/05/15 03:11:17;;;;;;;4.47;3.83;;;9.10;99.90;;;9.02;79.91;101611.44;5013395;28;20247;-66
2022/05/15 03:13:47;;;;;;;7.72;4.60;;;9.20;99.90;;;9.18;79.22;101615.09;4990112;28;20819;-68
2022/05/15 03:16:18;;;;;;;4.93;3.90;;;9.30;99.90;;;9.11;79.32;101615.78;4992687;28;20636;-66
2022/05/15 03:18:51;;;;;;;8.40;4.90;;;9.30;99.90;;;9.08;79.51;101610.75;5004014;28;20309;-67
2022/05/15 03:21:32;;;;;;;5.00;4.30;;;9.20;99.90;;;9.14;79.40;101620.00;5024692;28;20199;-68
2022/05/15 03:24:07;;;;;;;9.23;4.00;;;9.20;99.90;;;9.17;79.40;101616.94;5008327;28;20215;-67
2022/05/15 03:26:39;;;;;;;7.72;4.47;;;9.20;99.90;;;9.15;79.63;101622.50;5000037;28;20191;-67
2022/05/15 03:29:11;;;;;;;4.57;3.30;;;9.20;99.90;;;9.33;79.74;101621.44;4996340;28;20234;-68
2022/05/15 03:31:41;;;;;;;6.90;3.70;;;9.30;99.90;;;9.81;78.65;101621.13;4995008;28;20234;-65
2022/05/15 03:34:13;;;;;;;7.43;3.53;;;9.50;99.90;;;10.72;74.83;101621.03;4995618;28;20186;-67
2022/05/15 03:36:44;;;;;;;6.63;3.65;;;9.90;99.90;;;11.34;72.02;101626.06;4994311;28;20690;-66
2022/05/15 03:39:15;;;;;;;6.78;3.65;;;10.30;99.90;;;11.40;70.84;101636.13;5022875;28;20685;-66
2022/05/15 03:41:46;;;;;;;8.43;4.53;;;10.50;99.90;;;11.60;70.12;101629.09;5023236;28;20229;-68
2022/05/15 03:44:16;;;;;;;9.38;4.00;;;10.70;99.90;;;12.34;68.12;101626.94;5010676;28;20193;-68
2022/05/15 03:46:47;;;;;;;5.35;3.70;;;11.10;99.90;;;13.28;64.99;101628.19;5006201;28;20195;-67
2022/05/15 03:49:16;;;;;;;4.13;3.22;;;11.60;99.90;;;13.72;63.04;101635.06;5008099;28;20197;-68
2022/05/15 03:51:48;;;;;;;4.87;3.47;;;11.80;99.90;;;14.12;61.67;101630.56;5000926;28;20552;-66
2022/05/15 03:54:17;;;;;;;4.70;3.97;;;12.20;99.90;;;14.55;59.82;101637.31;5009533;28;20824;-67
2022/05/15 03:56:52;;;;;;;5.60;4.17;;;12.60;99.90;;;15.11;58.25;101632.16;4994845;28;20442;-67
2022/05/15 03:59:29;;;;;;;5.57;3.77;;;13.10;96.90;;;15.41;57.29;101643.38;5009888;28;20799;-67
2022/05/15 04:02:00;;;;;;;4.87;3.63;;;13.50;90.70;;;15.74;56.36;101639.69;4990449;28;20445;-66
2022/05/15 04:04:31;;;;;;;8.13;4.17;;;13.60;89.90;;;15.76;55.93;101646.63;4995016;28;20814;-67
2022/05/15 04:07:01;;;;;;;7.90;4.43;;;13.70;83.30;;;15.84;55.45;101651.81;5002227;28;20912;-67
2022/05/15 04:09:32;;;;;;;8.03;3.73;;;13.90;77.50;;;16.13;54.86;101641.34;5006122;28;20436;-68
2022/05/15 04:12:01;;;;;;;4.00;3.03;;;14.10;67.20;;;16.35;53.87;101656.31;5004533;28;20492;-67
2022/05/15 04:14:31;;;;;;;3.73;2.87;;;14.40;56.90;;;16.69;52.93;101650.41;4993198;28;20445;-66
2022/05/15 04:17:01;;;;;;;9.13;3.53;;;14.70;53.70;;;16.91;52.29;101654.38;4993934;28;21007;-65
2022/05/15 04:19:30;;;;;;;4.80;3.60;;;14.80;47.40;;;16.98;52.21;101650.75;5000590;28;20536;-66
2022/05/15 04:22:02;;;;;;;5.83;3.83;;;15.00;44.30;;;17.04;51.65;101653.41;5005732;28;20483;-65
2022/05/15 04:24:31;;;;;;;7.30;3.97;;;15.20;41.70;;;17.02;51.98;101655.53;4993789;28;20548;-68
2022/05/15 04:27:01;;;;;;;6.20;4.07;;;15.00;42.90;;;17.49;51.06;101659.41;4997991;28;20507;-67
2022/05/15 04:29:30;;;;;;;5.30;3.20;;;15.10;43.10;;;17.17;51.71;101672.41;5025174;28;20446;-68
2022/05/15 04:32:00;;;;;;;6.53;3.07;;;15.10;41.50;;;17.44;51.00;101678.41;5000435;28;20425;-67
2022/05/15 04:34:30;;;;;;;5.70;3.20;;;15.20;39.10;;;17.22;51.04;101667.09;4993139;28;20556;-67
2022/05/15 04:36:59;;;;;;;8.80;2.93;;;15.30;38.70;;;17.60;49.84;101669.63;4994092;28;20481;-68
2022/05/15 04:39:32;;;;;;;9.30;2.60;;;15.60;33.90;;;17.99;49.42;101676.47;4998147;28;20411;-66
2022/05/15 04:42:01;;;;;;;13.63;4.17;;;15.50;34.50;;;18.13;48.58;101677.13;5001852;28;20450;-67
2022/05/15 04:44:30;;;;;;;5.23;2.60;;;15.80;29.50;;;17.99;49.13;101684.69;5001374;28;20432;-67
2022/05/15 04:47:00;;;;;;;5.77;2.57;;;15.90;28.50;;;18.66;47.83;101688.94;4992267;28;20490;-67
2022/05/15 04:49:29;;;;;;;5.70;3.00;;;15.80;27.70;;;18.95;47.20;101680.88;4993788;28;20536;-68
2022/05/15 04:51:58;;;;;;;4.80;3.40;;;16.10;26.10;;;18.80;47.05;101680.50;4999197;28;20479;-67
2022/05/15 04:54:26;;;;;;;3.23;2.80;;;16.10;24.20;;;18.80;47.30;101691.47;5000855;28;20556;-67
2022/05/15 04:56:55;;;;;;;2.90;2.07;;;16.40;23.60;;;18.85;46.71;101691.59;5007465;28;20449;-67
2022/05/15 04:59:24;;;;;;;3.60;2.43;;;16.40;22.40;;;19.36;45.67;101690.88;4993695;28;20875;-67
2022/05/15 05:01:52;;;;;;;11.83;2.83;;;16.70;21.50;;;19.52;45.23;101682.72;4981930;28;20468;-67
2022/05/15 05:04:23;;;;;;;3.43;2.50;;;17.20;20.10;;;19.36;45.58;101693.59;4991404;28;20442;-67
2022/05/15 05:06:51;;;;;;;7.47;2.63;;;17.10;19.50;;;20.30;43.86;101693.09;4993138;28;20482;-67
2022/05/15 05:09:20;;;;;;;4.87;2.10;;;17.40;18.10;;;20.10;43.87;101698.16;4983549;28;20442;-67
2022/05/15 05:11:49;;;;;;;3.03;2.30;;;17.80;17.40;;;20.15;44.18;101697.44;5010167;28;20433;-66
2022/05/15 05:14:19;;;;;;;4.93;2.67;;;17.60;18.40;;;20.44;43.22;101707.34;5001050;28;20908;-67
2022/05/15 05:16:47;;;;;;;5.53;2.43;;;17.40;18.10;;;20.98;42.61;101711.28;4987673;28;20917;-67
2022/05/15 05:19:16;;;;;;;4.57;2.47;;;18.00;17.40;;;20.18;43.45;101702.47;4995346;28;20408;-67
2022/05/15 05:21:46;;;;;;;2.17;1.47;;;18.20;15.30;;;20.92;42.28;101709.53;4990863;28;20533;-67
2022/05/15 05:24:15;;;;;;;3.80;3.33;;;18.40;14.40;;;20.09;43.55;101707.50;4999585;28;20448;-67
2022/05/15 05:26:44;;;;;;;6.17;2.60;;;17.90;15.10;;;17.41;48.93;101713.63;4994409;28;20438;-68
2022/05/15 05:29:13;;;;;;;6.93;2.33;;;17.00;17.70;;;15.47;54.11;101712.63;4997383;28;20443;-67
2022/05/15 05:31:48;;;;;;;4.10;2.63;;;16.00;21.30;;;14.75;56.73;101724.47;4998118;28;20452;-67
2022/05/15 05:34:17;;;;;;;5.03;2.13;;;14.90;26.70;;;14.33;58.31;101725.63;4985807;28;20463;-68
2022/05/15 05:36:47;;;;;;;5.17;2.70;;;14.40;35.40;;;14.12;59.37;101720.38;4997794;28;20453;-67
2022/05/15 05:39:17;;;;;;;4.33;2.50;;;14.10;43.80;;;13.97;59.59;101725.97;4994723;28;20834;-66
2022/05/15 05:41:46;;;;;;;8.70;2.87;;;14.00;48.80;;;13.86;60.08;101735.56;4984351;28;20442;-66
2022/05/15 05:44:16;;;;;;;10.67;2.97;;;13.80;55.60;;;13.71;60.74;101734.88;4996890;28;20434;-67
2022/05/15 05:46:45;;;;;;;2.37;1.60;;;13.60;59.20;;;13.69;59.92;101744.28;4993371;28;20926;-68
2022/05/15 05:49:14;;;;;;;4.27;2.17;;;13.60;57.70;;;13.86;60.54;101745.59;5005970;28;20437;-67
2022/05/15 05:51:43;;;;;;;2.40;1.40;;;13.60;63.60;;;13.75;59.59;101746.19;5005897;28;20444;-67
2022/05/15 05:54:13;;;;;;;4.63;1.93;;;13.70;58.60;;;13.26;60.88;101749.91;5066307;23;20495;-67
2022/05/15 05:56:42;;;;;;;1.63;1.37;;;13.40;57.60;;;13.38;60.75;101748.28;5001271;28;20472;-67
2022/05/15 05:59:11;;;;;;;3.60;1.57;;;13.30;61.50;;;13.27;60.93;101748.84;5018642;28;20443;-68
2022/05/15 06:01:39;;;;;;;5.10;2.03;;;13.30;63.50;;;13.42;60.83;101754.16;5017398;28;20474;-67
2022/05/15 06:06:57;;;;;;;2.10;1.00;;;13.30;67.20;;;13.48;60.75;101750.66;5005669;28;20793;-68
2022/05/15 06:09:27;;;;;;;4.00;1.37;;;13.40;68.10;;;13.53;60.54;101750.88;5002834;28;20810;-68
2022/05/15 06:12:00;;;;;;;3.10;2.33;;;13.40;67.50;;;13.38;60.69;101752.88;4999063;28;20492;-67
2022/05/15 06:14:29;;;;;;;4.30;1.90;;;13.30;64.90;;;13.31;61.08;101755.56;4996533;28;20478;-67
2022/05/15 06:16:58;;;;;;;15.97;12.57;;;13.30;65.90;;;13.43;61.15;101751.25;4994541;28;20441;-66
2022/05/15 06:19:26;;;;;;;6.80;2.10;;;13.40;71.80;;;13.59;60.47;101749.25;4993051;28;20464;-67
2022/05/15 06:21:55;;;;;;;28.10;23.63;;;13.50;69.60;;;13.84;60.02;101758.59;4992327;28;20450;-68
2022/05/15 06:24:25;;;;;;;14.83;13.63;;;13.60;66.40;;;13.75;59.35;101754.34;4985520;28;20554;-68
2022/05/15 06:26:58;;;;;;;4.27;2.40;;;13.70;59.50;;;14.00;59.02;101758.22;5005963;28;20520;-67
2022/05/15 06:29:27;;;;;;;1.30;1.07;;;13.80;57.80;;;13.84;59.21;101758.59;4999237;28;20416;-68
2022/05/15 06:31:56;;;;;;;5.00;2.30;;;13.90;57.60;;;13.35;60.68;101759.59;5002360;28;20429;-68
2022/05/15 06:34:25;;;;;;;2.60;2.30;;;13.60;59.70;;;13.60;60.61;101756.38;4999006;28;20473;-68
2022/05/15 06:36:54;;;;;;;9.17;8.40;;;13.60;64.10;;;13.62;60.49;101759.72;5004814;28;20822;-67
2022/05/15 06:39:22;;;;;;;8.20;3.37;;;13.60;63.30;;;13.73;60.06;101756.44;4999073;28;20484;-67
2022/05/15 06:41:56;;;;;;;2.20;1.70;;;13.60;62.40;;;14.04;59.04;101753.22;4992352;28;20433;-67
2022/05/15 06:44:40;;;;;;;6.97;5.87;;;13.80;60.20;;;14.15;58.67;101758.91;4991197;28;20452;-67
2022/05/15 06:47:09;;;;;;;8.87;7.97;;;14.00;54.20;;;14.23;58.79;101750.53;4977584;28;20800;-67
2022/05/15 06:49:38;;;;;;;11.20;9.77;;;14.10;56.00;;;14.38;58.42;101750.41;4992630;28;21155;-67
2022/05/15 06:52:07;;;;;;;4.37;3.93;;;14.20;54.50;;;14.41;57.66;101752.72;4989490;28;20489;-68
2022/05/15 06:54:36;;;;;;;4.07;3.07;;;14.20;51.10;;;14.67;56.82;101754.63;4976657;28;20885;-67
2022/05/15 06:59:53;;;;;;;2.73;1.80;;;14.50;43.00;;;14.62;56.45;101751.72;5005589;28;20445;-67
2022/05/15 07:02:27;;;;;;;15.77;11.63;;;14.50;42.30;;;14.52;55.55;101754.00;5006160;28;20477;-66
2022/05/15 07:04:57;;;;;;;4.23;2.17;;;14.50;38.90;;;14.54;55.36;101760.91;4999568;28;20472;-66
2022/05/15 07:07:26;;;;;;;13.60;5.73;;;14.50;36.60;;;14.60;56.04;101762.81;4997537;28;20863;-66
2022/05/15 07:09:55;;;;;;;3.60;2.40;;;14.50;39.60;;;15.06;54.99;101754.63;4991783;28;20446;-67
2022/05/15 07:12:25;;;;;;;3.00;1.30;;;14.80;38.00;;;15.19;55.04;101748.34;4995986;28;20440;-67
2022/05/15 07:14:55;;;;;;;9.20;6.37;;;15.00;36.20;;;15.51;54.92;101757.53;4997398;28;20461;-67
2022/05/15 07:17:24;;;;;;;10.03;4.40;;;15.30;38.50;;;15.79;53.99;101754.50;4994646;28;20438;-67
2022/05/15 07:19:52;;;;;;;5.77;2.10;;;15.50;35.10;;;15.30;54.13;101758.59;4994231;28;20433;-66
2022/05/15 07:22:21;;;;;;;3.90;1.47;;;15.40;31.00;;;14.89;55.24;101764.28;5001699;28;20462;-67
2022/05/15 07:24:50;;;;;;;3.63;1.10;;;15.20;32.60;;;15.10;55.16;101755.88;4978938;28;20489;-67
2022/05/15 07:27:18;;;;;;;2.57;1.30;;;15.10;33.80;;;15.03;54.60;101765.97;4998727;28;20977;-67
2022/05/15 07:29:47;;;;;;;4.50;1.70;;;15.10;32.20;;;15.20;54.58;101761.75;5006448;28;20437;-68
2022/05/15 07:32:17;;;;;;;3.30;1.70;;;15.20;33.10;;;15.23;53.70;101761.34;4994730;28;20536;-68
2022/05/15 07:34:46;;;;;;;4.97;1.57;;;15.20;30.20;;;15.36;53.80;101759.63;5000882;28;20969;-68
2022/05/15 07:37:16;;;;;;;4.80;1.37;;;15.20;30.80;;;15.05;54.07;101763.03;5001885;28;20433;-68
2022/05/15 07:39:45;;;;;;;3.40;1.67;;;15.10;29.90;;;15.22;53.81;101769.72;4977165;28;20519;-67
2022/05/15 07:42:14;;;;;;;4.00;2.67;;;15.20;29.40;;;15.59;53.00;101763.59;4990086;28;20439;-67
2022/05/15 07:44:43;;;;;;;3.30;1.53;;;15.40;29.00;;;15.79;52.67;101763.53;4999318;28;20432;-66
2022/05/15 07:47:12;;;;;;;7.53;1.60;;;15.70;29.00;;;15.99;51.94;101756.09;5000851;28;20865;-67
2022/05/15 07:49:46;;;;;;;14.83;6.37;;;15.80;26.90;;;15.87;51.33;101757.84;4992738;28;20449;-67
2022/05/15 07:52:15;;;;;;;2.27;1.80;;;15.80;25.70;;;15.91;50.12;101763.72;4991166;28;20435;-67
2022/05/15 07:54:44;;;;;;;3.67;1.23;;;15.80;22.30;;;15.84;50.72;101758.25;5000887;28;20537;-67
2022/05/15 07:57:13;;;;;;;3.83;1.53;;;15.90;22.30;;;15.60;50.19;101759.81;5001004;28;20426;-67
2022/05/15 07:59:42;;;;;;;2.70;1.97;;;15.60;20.30;;;15.55;50.43;101765.06;5002927;28;20445;-67
2022/05/15 08:02:11;;;;;;;2.30;1.30;;;15.60;20.60;;;15.68;49.64;101758.75;5000618;28;20673;-66
2022/05/15 08:10:11;;;;;;;3.40;1.53;;;16.20;20.00;;;16.68;49.47;101765.41;5000367;28;20848;-67
2022/05/15 08:12:41;;;;;;;4.00;1.90;;;16.40;21.30;;;16.77;49.22;101758.59;4987751;28;20454;-66
2022/05/15 08:15:11;;;;;;;3.77;1.40;;;16.50;20.10;;;17.02;48.82;101756.72;4991625;28;20461;-66
2022/05/15 08:17:41;;;;;;;2.10;1.63;;;16.80;20.10;;;16.88;49.19;101758.72;4994240;28;20481;-66
2022/05/15 08:25:42;;;;;;;4.47;1.97;;;17.00;15.50;;;16.83;48.01;101757.72;4999319;28;20445;-67
2022/05/15 08:28:17;;;;;;;2.47;1.77;;;16.80;15.80;;;16.62;48.23;101753.44;4993731;28;20426;-66
2022/05/15 08:30:46;;;;;;;10.00;2.07;;;16.60;16.00;;;17.02;48.41;101761.34;4992540;28;20406;-66
2022/05/15 08:33:15;;;;;;;1.90;1.37;;;16.80;16.90;;;17.28;48.03;101761.91;4994910;28;20469;-66
2022/05/15 08:35:45;;;;;;;4.83;1.97;;;16.90;17.20;;;17.26;47.81;101763.22;4992623;28;20477;-66
2022/05/15 08:38:16;;;;;;;2.20;1.20;;;17.10;16.30;;;17.57;48.22;101754.06;4993711;28;20434;-66
2022/05/15 08:40:53;;;;;;;4.40;1.33;;;17.20;17.10;;;17.65;46.25;101751.88;4990602;28;20769;-67
2022/05/15 08:43:40;;;;;;;5.00;1.00;;;17.50;14.70;;;17.43;46.95;101747.88;4998866;28;20492;-67
2022/05/15 08:46:31;;;;;;;4.53;1.37;;;17.40;13.90;;;17.65;46.47;101743.69;4996860;28;20434;-66
2022/05/15 08:49:09;;;;;;;4.73;2.23;;;17.40;14.10;;;17.57;46.59;101741.19;4985150;28;20998;-67
2022/05/15 08:51:45;;;;;;;4.10;3.50;;;17.40;14.10;;;17.49;46.43;101741.50;4980085;28;20439;-67
2022/05/15 08:54:16;;;;;;;2.10;1.10;;;17.40;13.30;;;17.27;46.10;101748.50;5000566;28;20472;-67
2022/05/15 08:56:50;;;;;;;2.70;1.10;;;17.20;12.50;;;17.52;46.28;101741.06;4991657;28;20958;-67
2022/05/15 08:59:29;;;;;;;1.83;1.27;;;17.40;13.20;;;17.67;45.84;101752.47;4997432;28;20460;-67
2022/05/15 09:02:02;;;;;;;1.40;1.00;;;17.50;12.80;;;17.71;45.19;101747.41;4999695;28;20859;-67
2022/05/15 09:04:33;;;;;;;1.97;1.10;;;17.50;11.70;;;17.86;44.77;101747.84;5000901;28;20470;-67
2022/05/15 09:07:20;;;;;;;1.93;0.90;;;17.70;11.30;;;18.25;43.77;101741.00;4994384;28;20553;-67
2022/05/15 09:10:03;;;;;;;2.33;1.20;;;18.00;10.50;;;18.00;44.15;101754.84;4991130;28;20540;-67
2022/05/15 09:12:37;;;;;;;1.63;0.80;;;17.90;9.40;;;18.01;43.41;101755.69;4992128;28;20461;-66
2022/05/15 09:15:13;;;;;;;3.93;1.37;;;17.90;9.20;;;18.08;43.40;101745.47;4991643;28;20467;-66
2022/05/15 09:17:49;;;;;;;3.00;1.10;;;17.90;8.80;;;18.37;42.79;101744.63;4991568;28;20433;-67
2022/05/15 09:20:33;;;;;;;1.40;0.83;;;18.10;8.20;;;18.28;42.76;101748.75;4995154;28;20520;-67
2022/05/15 09:23:10;;;;;;;2.50;1.37;;;18.20;8.40;;;18.54;42.10;101751.13;4986835;28;20463;-67
2022/05/15 09:25:40;;;;;;;3.37;1.00;;;18.30;7.30;;;18.72;41.71;101743.91;4987362;28;20441;-67
2022/05/15 09:28:12;;;;;;;3.20;0.90;;;18.50;6.90;;;18.74;41.97;101744.50;4997940;28;20488;-68
2022/05/15 09:30:45;;;;;;;3.67;1.73;;;18.40;6.20;;;18.79;41.21;101739.97;4988963;28;20468;-65
2022/05/15 09:33:33;;;;;;;2.60;0.90;;;18.60;6.10;;;18.46;41.40;101739.63;4989739;28;20907;-65
2022/05/15 09:36:24;;;;;;;1.60;0.90;;;18.40;4.90;;;18.29;42.25;101742.22;4989387;28;20544;-65
2022/05/15 09:39:16;;;;;;;2.10;1.13;;;18.30;5.60;;;18.33;41.27;101732.47;4988004;28;20462;-64
2022/05/15 09:44:49;;;;;;;1.60;0.90;;;18.40;4.70;;;18.93;39.98;101718.66;4993260;28;20540;-65
2022/05/15 09:47:32;;;;;;;2.00;0.70;;;18.60;3.80;;;19.10;39.44;101719.63;4989844;28;20769;-66
2022/05/15 09:50:01;;;;;;;2.67;1.07;;;18.80;3.20;;;18.61;38.77;101724.47;5007938;28;20852;-64
2022/05/15 09:52:36;;;;;;;2.87;1.80;;;18.70;1.40;;;18.52;39.70;101725.00;5003660;28;20448;-64
2022/05/15 09:55:13;;;;;;;1.80;0.93;;;18.50;2.10;;;18.53;39.07;101718.47;5004169;28;20433;-65
2022/05/15 09:57:56;;;;;;;2.67;0.70;;;18.40;1.80;;;18.69;39.04;101714.25;4999384;28;20442;-65
2022/05/15 10:00:27;;;;;;;1.40;0.97;;;18.40;1.60;;;19.21;38.43;101716.06;4973713;28;20435;-64
2022/05/15 10:03:03;;;;;;;2.50;1.10;;;18.80;1.90;;;19.07;38.39;101720.13;5001211;28;20476;-65
2022/05/15 10:05:35;;;;;;;2.07;0.90;;;18.90;1.00;;;18.78;39.05;101716.41;4974314;28;20485;-65
2022/05/15 10:08:10;;;;;;;1.10;0.70;;;18.70;1.10;;;18.83;39.16;101716.50;4990726;28;20487;-65
2022/05/15 10:10:47;;;;;;;1.70;1.03;;;18.70;1.00;;;18.99;38.28;101715.81;4992677;28;20817;-64
2022/05/15 10:13:32;;;;;;;1.53;1.13;;;18.80;1.00;;;18.97;38.85;101711.63;5001787;28;20462;-65
2022/05/15 10:16:09;;;;;;;1.50;0.80;;;18.80;1.00;;;18.83;39.04;101711.00;4986701;28;20770;-65
2022/05/15 10:18:51;;;;;;;1.87;1.00;;;18.70;1.00;;;19.24;38.49;101718.31;4986769;28;20417;-65
2022/05/15 10:21:26;;;;;;;2.90;0.80;;;18.90;1.00;;;19.66;36.77;101704.41;4990472;28;20480;-65
2022/05/15 10:24:01;;;;;;;2.30;0.80;;;19.20;1.00;;;19.68;36.75;101707.78;4986919;28;20479;-65
2022/05/15 10:26:46;;;;;;;1.97;0.70;;;19.50;1.00;;;18.81;37.16;101709.59;5007760;28;20527;-65
2022/05/15 10:29:27;;;;;;;1.40;0.90;;;19.10;1.00;;;18.94;37.40;101703.88;5011336;28;20442;-64
2022/05/15 10:32:08;;;;;;;1.50;0.90;;;18.90;1.00;;;19.36;36.77;101705.44;5006505;28;20429;-66
2022/05/15 10:34:37;;;;;;;1.10;0.67;;;19.20;1.00;;;19.02;37.32;101701.63;5007819;28;20515;-64
2022/05/15 10:37:52;;;;;;;1.63;0.87;;;19.00;1.00;;;19.17;37.99;101686.59;4995268;28;20446;-64
2022/05/15 10:40:33;;;;;;;2.00;1.00;;;19.00;1.00;;;19.47;37.57;101690.03;4997579;28;20957;-65
2022/05/15 10:43:27;;;;;;;1.40;0.90;;;19.10;1.00;;;19.66;36.88;101676.97;5000495;28;20481;-64
2022/05/15 10:46:10;;;;;;;2.60;0.87;;;19.40;1.00;;;20.23;36.32;101678.66;4998099;28;20436;-64
2022/05/15 10:48:58;;;;;;;1.00;0.60;;;19.80;1.00;;;20.43;35.58;101678.19;4997027;28;20440;-65
2022/05/15 10:51:40;;;;;;;1.20;0.80;;;20.00;1.00;;;20.42;34.81;101670.22;4992523;28;20929;-64
2022/05/15 10:57:38;;;;;;;1.50;1.00;;;20.00;1.00;;;20.19;35.60;101677.47;4992004;28;20519;-65
2022/05/15 11:00:19;;;;;;;1.50;0.73;;;20.00;1.00;;;20.02;34.81;101682.09;4993691;28;20414;-64
2022/05/15 11:03:53;;;;;;;1.70;0.70;;;20.00;1.00;;;19.95;34.68;101689.63;4993509;28;20454;-65